LHX6UW EDDM-LRTR
Flight info
| Callsign | LHX6UW |
|---|---|
| Flight time | 1h 1m |
| Altitude | 39000 |
| Route | KIRDI3S KIRDI DCT BUBSE DCT GOTAR DCT BABIT/N0337F190 Y574 ROMUX |
| Aircraft | A20N/M-SDE2E3FGHIRWXY/LB1 |
Departure
| Time | 2026-05-07 19:41 |
|---|---|
| Airport | Munich Airport (EDDM) |
Arrival
| Time | 2026-05-07 20:43 |
|---|---|
| Airport | Timișoara Traian Vuia International Airport (LRTR) |
| Time | Latitude | Longitude | Altitude | Speed | Heading |
|---|---|---|---|---|---|
| 2026-05-07 18:57 | 48.35282 | 11.79766 | 1476 ft | 0 kts | 83° |
| 2026-05-07 19:20 | 48.35280 | 11.79738 | 1483 ft | 4 kts | 83° |
| 2026-05-07 19:21 | 48.35277 | 11.79697 | 1477 ft | 4 kts | 83° |
| 2026-05-07 19:21 | 48.35274 | 11.79657 | 1475 ft | 4 kts | 83° |
| 2026-05-07 19:21 | 48.35271 | 11.79617 | 1473 ft | 4 kts | 83° |
| 2026-05-07 19:21 | 48.35268 | 11.79577 | 1474 ft | 4 kts | 89° |
| 2026-05-07 19:22 | 48.35268 | 11.79555 | 1474 ft | 4 kts | 93° |
| 2026-05-07 19:22 | 48.35268 | 11.79547 | 1473 ft | 4 kts | 92° |
| 2026-05-07 19:27 | 48.35268 | 11.79521 | 1474 ft | 2 kts | 83° |
| 2026-05-07 19:27 | 48.35264 | 11.79493 | 1476 ft | 4 kts | 25° |
| 2026-05-07 19:28 | 48.35246 | 11.79490 | 1480 ft | 4 kts | 353° |
| 2026-05-07 19:28 | 48.35233 | 11.79492 | 1479 ft | 0 kts | 353° |
| 2026-05-07 19:32 | 48.35236 | 11.79492 | 1480 ft | 2 kts | 355° |
| 2026-05-07 19:32 | 48.35254 | 11.79556 | 1472 ft | 13 kts | 98° |
| 2026-05-07 19:32 | 48.35183 | 11.79636 | 1475 ft | 14 kts | 170° |
| 2026-05-07 19:32 | 48.35092 | 11.79653 | 1473 ft | 11 kts | 173° |
| 2026-05-07 19:33 | 48.35007 | 11.79667 | 1485 ft | 13 kts | 174° |
| 2026-05-07 19:33 | 48.34932 | 11.79680 | 1475 ft | 9 kts | 174° |
| 2026-05-07 19:33 | 48.34868 | 11.79691 | 1475 ft | 6 kts | 173° |
| 2026-05-07 19:33 | 48.34855 | 11.79694 | 1481 ft | 0 kts | 173° |
| 2026-05-07 19:34 | 48.34854 | 11.79694 | 1480 ft | 0 kts | 173° |
| 2026-05-07 19:34 | 48.34853 | 11.79694 | 1480 ft | 0 kts | 173° |
| 2026-05-07 19:34 | 48.34850 | 11.79694 | 1481 ft | 1 kts | 173° |
| 2026-05-07 19:34 | 48.34822 | 11.79705 | 1476 ft | 7 kts | 150° |
| 2026-05-07 19:35 | 48.34808 | 11.79782 | 1482 ft | 9 kts | 84° |
| 2026-05-07 19:35 | 48.34817 | 11.79894 | 1485 ft | 12 kts | 84° |
| 2026-05-07 19:35 | 48.34828 | 11.80048 | 1479 ft | 16 kts | 83° |
| 2026-05-07 19:35 | 48.34843 | 11.80231 | 1476 ft | 19 kts | 83° |
| 2026-05-07 19:36 | 48.34855 | 11.80432 | 1485 ft | 20 kts | 98° |
| 2026-05-07 19:36 | 48.34795 | 11.80546 | 1473 ft | 14 kts | 159° |
| 2026-05-07 19:36 | 48.34705 | 11.80566 | 1481 ft | 11 kts | 177° |
| 2026-05-07 19:36 | 48.34685 | 11.80569 | 1485 ft | 0 kts | 174° |
| 2026-05-07 19:38 | 48.34683 | 11.80569 | 1485 ft | 2 kts | 174° |
| 2026-05-07 19:38 | 48.34660 | 11.80572 | 1478 ft | 5 kts | 176° |
| 2026-05-07 19:38 | 48.34610 | 11.80550 | 1483 ft | 12 kts | 213° |
| 2026-05-07 19:39 | 48.34521 | 11.80442 | 1479 ft | 17 kts | 223° |
| 2026-05-07 19:39 | 48.34468 | 11.80291 | 1485 ft | 0 kts | 261° |
| 2026-05-07 19:39 | 48.34468 | 11.80290 | 1485 ft | 0 kts | 261° |
| 2026-05-07 19:40 | 48.34468 | 11.80289 | 1485 ft | 1 kts | 261° |
| 2026-05-07 19:40 | 48.34444 | 11.79989 | 1485 ft | 64 kts | 264° |
| 2026-05-07 19:40 | 48.34366 | 11.78996 | 1480 ft | 122 kts | 264° |
| 2026-05-07 19:41 | 48.34250 | 11.77498 | 1559 ft | 158 kts | 264° |
| 2026-05-07 19:41 | 48.34136 | 11.75873 | 2044 ft | 165 kts | 265° |
| 2026-05-07 19:41 | 48.34003 | 11.74099 | 2534 ft | 174 kts | 262° |
| 2026-05-07 19:41 | 48.33538 | 11.72412 | 3118 ft | 177 kts | 233° |
| 2026-05-07 19:42 | 48.32573 | 11.71195 | 3520 ft | 191 kts | 205° |
| 2026-05-07 19:42 | 48.31220 | 11.70788 | 3796 ft | 209 kts | 181° |
| 2026-05-07 19:42 | 48.29713 | 11.70798 | 4121 ft | 223 kts | 177° |
| 2026-05-07 19:42 | 48.28201 | 11.71403 | 4750 ft | 228 kts | 152° |
| 2026-05-07 19:43 | 48.26869 | 11.72730 | 5487 ft | 236 kts | 146° |
| 2026-05-07 19:43 | 48.25449 | 11.74199 | 5975 ft | 259 kts | 147° |
| 2026-05-07 19:43 | 48.23897 | 11.75777 | 6564 ft | 277 kts | 147° |
| 2026-05-07 19:43 | 48.22291 | 11.77404 | 7438 ft | 281 kts | 148° |
| 2026-05-07 19:44 | 48.20652 | 11.79062 | 8208 ft | 286 kts | 148° |
| 2026-05-07 19:44 | 48.20342 | 11.79382 | 8317 ft | 287 kts | 146° |
| 2026-05-07 19:45 | 48.19103 | 11.81227 | 8551 ft | 288 kts | 126° |
| 2026-05-07 19:45 | 48.18346 | 11.84061 | 8855 ft | 302 kts | 97° |
| 2026-05-07 19:45 | 48.18397 | 11.87220 | 9776 ft | 305 kts | 84° |
| 2026-05-07 19:45 | 48.18625 | 11.90414 | 10618 ft | 310 kts | 83° |
| 2026-05-07 19:46 | 48.18883 | 11.93638 | 11478 ft | 313 kts | 83° |
| 2026-05-07 19:46 | 48.19138 | 11.96896 | 12308 ft | 318 kts | 83° |
| 2026-05-07 19:46 | 48.19384 | 12.00207 | 13147 ft | 322 kts | 83° |
| 2026-05-07 19:46 | 48.19625 | 12.03572 | 13965 ft | 326 kts | 84° |
| 2026-05-07 19:47 | 48.19863 | 12.06982 | 14681 ft | 330 kts | 84° |
| 2026-05-07 19:47 | 48.20097 | 12.10383 | 15396 ft | 334 kts | 83° |
| 2026-05-07 19:47 | 48.20339 | 12.13913 | 16123 ft | 338 kts | 83° |
| 2026-05-07 19:47 | 48.20577 | 12.17391 | 16828 ft | 342 kts | 83° |
| 2026-05-07 19:48 | 48.20820 | 12.20965 | 17533 ft | 346 kts | 83° |
| 2026-05-07 19:48 | 48.21065 | 12.24579 | 18229 ft | 350 kts | 83° |
| 2026-05-07 19:48 | 48.21312 | 12.28231 | 18784 ft | 354 kts | 83° |
| 2026-05-07 19:48 | 48.21561 | 12.31920 | 18991 ft | 355 kts | 83° |
| 2026-05-07 19:49 | 48.21809 | 12.35609 | 19057 ft | 355 kts | 83° |
| 2026-05-07 19:49 | 48.22057 | 12.39300 | 19065 ft | 355 kts | 83° |
| 2026-05-07 19:49 | 48.22303 | 12.42985 | 19061 ft | 355 kts | 83° |
| 2026-05-07 19:49 | 48.22547 | 12.46665 | 19061 ft | 355 kts | 83° |
| 2026-05-07 19:50 | 48.22791 | 12.50353 | 19061 ft | 355 kts | 83° |
| 2026-05-07 19:50 | 48.23032 | 12.54033 | 19061 ft | 355 kts | 84° |
| 2026-05-07 19:50 | 48.23063 | 12.57735 | 19062 ft | 356 kts | 94° |
| 2026-05-07 19:50 | 48.22743 | 12.61424 | 19061 ft | 364 kts | 98° |
| 2026-05-07 19:51 | 48.22372 | 12.65253 | 19086 ft | 386 kts | 98° |
| 2026-05-07 19:51 | 48.21986 | 12.69332 | 19258 ft | 403 kts | 98° |
| 2026-05-07 19:51 | 48.21589 | 12.73545 | 19726 ft | 410 kts | 98° |
| 2026-05-07 19:51 | 48.21188 | 12.77785 | 20363 ft | 412 kts | 98° |
| 2026-05-07 19:52 | 48.20845 | 12.82062 | 20971 ft | 415 kts | 93° |
| 2026-05-07 19:52 | 48.20852 | 12.86395 | 21561 ft | 418 kts | 87° |
| 2026-05-07 19:52 | 48.20961 | 12.90762 | 22152 ft | 421 kts | 87° |
| 2026-05-07 19:52 | 48.21063 | 12.95164 | 22732 ft | 424 kts | 87° |
| 2026-05-07 19:53 | 48.21160 | 12.99598 | 23295 ft | 427 kts | 87° |
| 2026-05-07 19:53 | 48.21224 | 13.02616 | 23674 ft | 430 kts | 87° |
| 2026-05-07 19:53 | 48.21317 | 13.07056 | 24155 ft | 432 kts | 87° |
| 2026-05-07 19:53 | 48.21410 | 13.11577 | 24647 ft | 435 kts | 87° |
| 2026-05-07 19:54 | 48.21501 | 13.16120 | 25123 ft | 437 kts | 87° |
| 2026-05-07 19:54 | 48.21592 | 13.20700 | 25590 ft | 440 kts | 87° |
| 2026-05-07 19:54 | 48.21681 | 13.25307 | 26050 ft | 443 kts | 88° |
| 2026-05-07 19:54 | 48.21769 | 13.29933 | 26498 ft | 445 kts | 88° |
| 2026-05-07 19:55 | 48.21855 | 13.34589 | 26934 ft | 448 kts | 88° |
| 2026-05-07 19:55 | 48.21910 | 13.39271 | 27343 ft | 451 kts | 92° |
| 2026-05-07 19:55 | 48.21460 | 13.43939 | 27692 ft | 454 kts | 105° |
| 2026-05-07 19:55 | 48.20350 | 13.48368 | 28097 ft | 455 kts | 118° |
| 2026-05-07 19:56 | 48.18720 | 13.52438 | 28477 ft | 456 kts | 124° |
| 2026-05-07 19:56 | 48.17020 | 13.56466 | 28865 ft | 458 kts | 124° |
| 2026-05-07 19:56 | 48.15313 | 13.60517 | 29229 ft | 461 kts | 123° |
| 2026-05-07 19:56 | 48.13597 | 13.64594 | 29576 ft | 463 kts | 123° |
| 2026-05-07 19:57 | 48.11877 | 13.68682 | 29932 ft | 465 kts | 123° |
| 2026-05-07 19:57 | 48.10168 | 13.72735 | 30246 ft | 468 kts | 124° |
| 2026-05-07 19:57 | 48.08422 | 13.76871 | 30511 ft | 471 kts | 124° |
| 2026-05-07 19:57 | 48.06666 | 13.81025 | 30787 ft | 473 kts | 124° |
| 2026-05-07 19:58 | 48.04898 | 13.85196 | 31070 ft | 476 kts | 124° |
| 2026-05-07 19:58 | 48.03123 | 13.89379 | 31390 ft | 477 kts | 124° |
| 2026-05-07 19:58 | 48.01344 | 13.93564 | 31748 ft | 477 kts | 125° |
| 2026-05-07 19:58 | 47.99562 | 13.97751 | 32109 ft | 478 kts | 125° |
| 2026-05-07 19:59 | 47.97778 | 14.01936 | 32461 ft | 478 kts | 125° |
| 2026-05-07 19:59 | 47.95993 | 14.06118 | 32811 ft | 478 kts | 125° |
| 2026-05-07 19:59 | 47.94207 | 14.10295 | 33145 ft | 478 kts | 125° |
| 2026-05-07 19:59 | 47.92413 | 14.14489 | 33481 ft | 478 kts | 126° |
| 2026-05-07 20:00 | 47.90624 | 14.18663 | 33805 ft | 478 kts | 126° |
| 2026-05-07 20:00 | 47.88830 | 14.22839 | 34102 ft | 479 kts | 126° |
| 2026-05-07 20:00 | 47.87036 | 14.27010 | 34384 ft | 478 kts | 126° |
| 2026-05-07 20:00 | 47.85240 | 14.31177 | 34684 ft | 477 kts | 126° |
| 2026-05-07 20:01 | 47.83448 | 14.35329 | 34959 ft | 477 kts | 126° |
| 2026-05-07 20:01 | 47.81650 | 14.39488 | 35224 ft | 476 kts | 126° |
| 2026-05-07 20:01 | 47.79880 | 14.43577 | 35493 ft | 476 kts | 126° |
| 2026-05-07 20:01 | 47.78087 | 14.47714 | 35731 ft | 475 kts | 126° |
| 2026-05-07 20:02 | 47.76298 | 14.51833 | 36033 ft | 474 kts | 126° |
| 2026-05-07 20:02 | 47.74510 | 14.55946 | 36278 ft | 473 kts | 126° |
| 2026-05-07 20:02 | 47.72721 | 14.60052 | 36499 ft | 473 kts | 126° |
| 2026-05-07 20:02 | 47.70931 | 14.64156 | 36688 ft | 474 kts | 126° |
| 2026-05-07 20:03 | 47.69128 | 14.68282 | 36811 ft | 476 kts | 127° |
| 2026-05-07 20:03 | 47.67327 | 14.72398 | 36994 ft | 475 kts | 127° |
| 2026-05-07 20:03 | 47.65526 | 14.76509 | 37251 ft | 474 kts | 127° |
| 2026-05-07 20:03 | 47.63728 | 14.80606 | 37464 ft | 474 kts | 127° |
| 2026-05-07 20:04 | 47.61933 | 14.84693 | 37702 ft | 472 kts | 127° |
| 2026-05-07 20:04 | 47.60139 | 14.88772 | 37922 ft | 471 kts | 127° |
| 2026-05-07 20:04 | 47.58373 | 14.92778 | 38098 ft | 471 kts | 127° |
| 2026-05-07 20:04 | 47.56584 | 14.96832 | 38283 ft | 471 kts | 127° |
| 2026-05-07 20:05 | 47.54789 | 15.00889 | 38454 ft | 470 kts | 127° |
| 2026-05-07 20:05 | 47.52994 | 15.04942 | 38603 ft | 471 kts | 127° |
| 2026-05-07 20:05 | 47.51201 | 15.08987 | 38755 ft | 470 kts | 127° |
| 2026-05-07 20:05 | 47.49403 | 15.13036 | 38904 ft | 469 kts | 127° |
| 2026-05-07 20:06 | 47.45812 | 15.21106 | 39052 ft | 471 kts | 128° |
| 2026-05-07 20:06 | 47.42214 | 15.29169 | 39060 ft | 469 kts | 128° |
| 2026-05-07 20:07 | 47.38609 | 15.37220 | 39052 ft | 470 kts | 128° |
| 2026-05-07 20:07 | 47.34993 | 15.45272 | 39053 ft | 470 kts | 128° |
| 2026-05-07 20:08 | 47.31381 | 15.53297 | 39049 ft | 470 kts | 128° |
| 2026-05-07 20:08 | 47.27762 | 15.61314 | 39052 ft | 470 kts | 128° |
| 2026-05-07 20:09 | 47.24153 | 15.69279 | 39054 ft | 470 kts | 128° |
| 2026-05-07 20:10 | 47.18698 | 15.81280 | 39047 ft | 471 kts | 129° |
| 2026-05-07 20:10 | 47.15052 | 15.89274 | 39025 ft | 471 kts | 129° |
| 2026-05-07 20:11 | 46.97680 | 16.27494 | 38930 ft | 472 kts | 124° |
| 2026-05-07 20:11 | 46.80087 | 16.71190 | 39059 ft | 438 kts | 137° |
| 2026-05-07 20:11 | 46.78252 | 16.74773 | 39083 ft | 450 kts | 124° |
| 2026-05-07 20:12 | 46.76976 | 16.78931 | 39115 ft | 457 kts | 114° |
| 2026-05-07 20:12 | 46.75905 | 16.83320 | 38987 ft | 463 kts | 116° |
| 2026-05-07 20:12 | 46.74686 | 16.87663 | 39016 ft | 463 kts | 119° |
| 2026-05-07 20:13 | 46.71796 | 16.96065 | 39021 ft | 465 kts | 124° |
| 2026-05-07 20:13 | 46.68624 | 17.04345 | 39021 ft | 471 kts | 125° |
| 2026-05-07 20:14 | 46.65375 | 17.12700 | 39021 ft | 477 kts | 125° |
| 2026-05-07 20:14 | 46.62107 | 17.21109 | 39021 ft | 476 kts | 124° |
| 2026-05-07 20:15 | 46.58846 | 17.29484 | 39027 ft | 475 kts | 124° |
| 2026-05-07 20:15 | 46.55580 | 17.37844 | 39018 ft | 476 kts | 125° |
| 2026-05-07 20:16 | 46.52306 | 17.46200 | 39018 ft | 475 kts | 125° |
| 2026-05-07 20:16 | 46.49026 | 17.54544 | 39018 ft | 475 kts | 125° |
| 2026-05-07 20:17 | 46.45743 | 17.62869 | 39028 ft | 475 kts | 125° |
| 2026-05-07 20:17 | 46.42481 | 17.71119 | 39023 ft | 475 kts | 125° |
| 2026-05-07 20:18 | 46.39186 | 17.79423 | 39023 ft | 475 kts | 125° |
| 2026-05-07 20:18 | 46.35888 | 17.87711 | 39019 ft | 475 kts | 125° |
| 2026-05-07 20:19 | 46.32582 | 17.95993 | 39021 ft | 474 kts | 125° |
| 2026-05-07 20:19 | 46.29275 | 18.04256 | 39030 ft | 475 kts | 125° |
| 2026-05-07 20:20 | 46.25956 | 18.12521 | 39033 ft | 475 kts | 125° |
| 2026-05-07 20:20 | 46.22633 | 18.20771 | 39041 ft | 475 kts | 125° |
| 2026-05-07 20:21 | 46.19314 | 18.28991 | 39035 ft | 471 kts | 125° |
| 2026-05-07 20:21 | 46.16036 | 18.37082 | 39042 ft | 470 kts | 125° |
| 2026-05-07 20:22 | 46.12725 | 18.45228 | 39041 ft | 471 kts | 125° |
| 2026-05-07 20:22 | 46.09011 | 18.54340 | 39039 ft | 471 kts | 125° |
| 2026-05-07 20:23 | 46.02433 | 18.70406 | 39016 ft | 467 kts | 125° |
| 2026-05-07 20:23 | 45.95801 | 18.86632 | 39028 ft | 473 kts | 121° |
| 2026-05-07 20:23 | 45.93476 | 18.95640 | 39029 ft | 478 kts | 106° |
| 2026-05-07 20:24 | 45.92677 | 19.05167 | 39035 ft | 484 kts | 95° |
| 2026-05-07 20:24 | 45.91953 | 19.24380 | 39032 ft | 484 kts | 96° |
| 2026-05-07 20:25 | 45.91168 | 19.43582 | 37771 ft | 481 kts | 96° |
| 2026-05-07 20:25 | 45.90757 | 19.53262 | 35313 ft | 491 kts | 96° |
| 2026-05-07 20:25 | 45.90335 | 19.63076 | 33220 ft | 489 kts | 96° |
| 2026-05-07 20:25 | 45.89920 | 19.72637 | 31594 ft | 478 kts | 96° |
| 2026-05-07 20:26 | 45.89493 | 19.82140 | 30262 ft | 474 kts | 97° |
| 2026-05-07 20:26 | 45.89067 | 19.91518 | 29019 ft | 465 kts | 97° |
| 2026-05-07 20:26 | 45.88641 | 20.00692 | 27781 ft | 457 kts | 97° |
| 2026-05-07 20:26 | 45.88215 | 20.09711 | 26597 ft | 449 kts | 97° |
| 2026-05-07 20:27 | 45.87795 | 20.18483 | 25436 ft | 442 kts | 97° |
| 2026-05-07 20:27 | 45.87366 | 20.27252 | 24251 ft | 438 kts | 97° |
| 2026-05-07 20:27 | 45.86936 | 20.35934 | 23024 ft | 433 kts | 97° |
| 2026-05-07 20:27 | 45.86506 | 20.44484 | 21851 ft | 425 kts | 97° |
| 2026-05-07 20:28 | 45.86078 | 20.52861 | 20679 ft | 418 kts | 96° |
| 2026-05-07 20:28 | 45.85650 | 20.61115 | 19528 ft | 412 kts | 96° |
| 2026-05-07 20:28 | 45.85256 | 20.69265 | 18359 ft | 407 kts | 96° |
| 2026-05-07 20:28 | 45.84405 | 20.77183 | 17202 ft | 394 kts | 109° |
| 2026-05-07 20:29 | 45.82613 | 20.84524 | 16094 ft | 385 kts | 112° |
| 2026-05-07 20:29 | 45.80835 | 20.91737 | 15003 ft | 379 kts | 111° |
| 2026-05-07 20:29 | 45.79079 | 20.98836 | 13900 ft | 375 kts | 111° |
| 2026-05-07 20:29 | 45.77363 | 21.05752 | 12817 ft | 369 kts | 111° |
| 2026-05-07 20:30 | 45.75662 | 21.12588 | 12043 ft | 354 kts | 111° |
| 2026-05-07 20:30 | 45.74096 | 21.18876 | 11668 ft | 317 kts | 112° |
| 2026-05-07 20:30 | 45.72684 | 21.24525 | 11103 ft | 291 kts | 112° |
| 2026-05-07 20:30 | 45.71420 | 21.29568 | 10799 ft | 259 kts | 112° |
| 2026-05-07 20:31 | 45.70092 | 21.34798 | 10616 ft | 302 kts | 112° |
| 2026-05-07 20:31 | 45.68665 | 21.40463 | 10541 ft | 298 kts | 112° |
| 2026-05-07 20:31 | 45.67296 | 21.45904 | 10067 ft | 287 kts | 112° |
| 2026-05-07 20:31 | 45.65944 | 21.51243 | 8986 ft | 283 kts | 112° |
| 2026-05-07 20:32 | 45.64614 | 21.56480 | 7971 ft | 277 kts | 112° |
| 2026-05-07 20:32 | 45.63310 | 21.61603 | 7017 ft | 271 kts | 112° |
| 2026-05-07 20:32 | 45.62031 | 21.66616 | 6025 ft | 267 kts | 112° |
| 2026-05-07 20:32 | 45.60775 | 21.71533 | 5094 ft | 260 kts | 112° |
| 2026-05-07 20:33 | 45.59568 | 21.76250 | 4444 ft | 254 kts | 113° |
| 2026-05-07 20:33 | 45.58644 | 21.81024 | 4019 ft | 246 kts | 87° |
| 2026-05-07 20:33 | 45.60456 | 21.84767 | 4022 ft | 237 kts | 24° |
| 2026-05-07 20:33 | 45.62778 | 21.85838 | 4007 ft | 211 kts | 12° |
| 2026-05-07 20:34 | 45.64226 | 21.86367 | 4012 ft | 216 kts | 13° |
| 2026-05-07 20:34 | 45.65678 | 21.86818 | 4009 ft | 211 kts | 355° |
| 2026-05-07 20:34 | 45.67042 | 21.86202 | 4016 ft | 205 kts | 318° |
| 2026-05-07 20:34 | 45.67980 | 21.84718 | 4031 ft | 197 kts | 296° |
| 2026-05-07 20:35 | 45.68559 | 21.83061 | 4005 ft | 175 kts | 287° |
| 2026-05-07 20:35 | 45.68972 | 21.81527 | 4017 ft | 156 kts | 284° |
| 2026-05-07 20:35 | 45.69325 | 21.80126 | 4029 ft | 151 kts | 284° |
| 2026-05-07 20:35 | 45.69670 | 21.78739 | 4006 ft | 141 kts | 284° |
| 2026-05-07 20:36 | 45.69998 | 21.77442 | 4020 ft | 140 kts | 284° |
| 2026-05-07 20:36 | 45.70326 | 21.76132 | 4007 ft | 140 kts | 284° |
| 2026-05-07 20:36 | 45.70811 | 21.74208 | 4010 ft | 139 kts | 284° |
| 2026-05-07 20:36 | 45.71469 | 21.71595 | 4005 ft | 139 kts | 284° |
| 2026-05-07 20:37 | 45.72118 | 21.69020 | 4004 ft | 139 kts | 284° |
| 2026-05-07 20:37 | 45.72776 | 21.66405 | 4019 ft | 140 kts | 284° |
| 2026-05-07 20:37 | 45.73439 | 21.63777 | 4021 ft | 140 kts | 284° |
| 2026-05-07 20:37 | 45.74101 | 21.61145 | 3953 ft | 141 kts | 285° |
| 2026-05-07 20:38 | 45.74627 | 21.59059 | 3683 ft | 139 kts | 284° |
| 2026-05-07 20:38 | 45.74955 | 21.57754 | 3515 ft | 139 kts | 284° |
| 2026-05-07 20:38 | 45.75281 | 21.56460 | 3331 ft | 138 kts | 284° |
| 2026-05-07 20:38 | 45.75497 | 21.55601 | 3202 ft | 139 kts | 284° |
| 2026-05-07 20:39 | 45.75823 | 21.54302 | 3017 ft | 139 kts | 285° |
| 2026-05-07 20:39 | 45.76150 | 21.53005 | 2832 ft | 139 kts | 284° |
| 2026-05-07 20:39 | 45.76582 | 21.51287 | 2584 ft | 138 kts | 285° |
| 2026-05-07 20:39 | 45.76908 | 21.49993 | 2405 ft | 137 kts | 284° |
| 2026-05-07 20:40 | 45.77122 | 21.49139 | 2291 ft | 137 kts | 284° |
| 2026-05-07 20:40 | 45.77446 | 21.47853 | 2101 ft | 137 kts | 284° |
| 2026-05-07 20:40 | 45.77767 | 21.46574 | 1921 ft | 137 kts | 284° |
| 2026-05-07 20:40 | 45.78090 | 21.45290 | 1732 ft | 137 kts | 284° |
| 2026-05-07 20:41 | 45.78413 | 21.44004 | 1553 ft | 137 kts | 285° |
| 2026-05-07 20:41 | 45.78737 | 21.42715 | 1368 ft | 137 kts | 285° |
| 2026-05-07 20:41 | 45.79061 | 21.41425 | 1184 ft | 138 kts | 287° |
| 2026-05-07 20:41 | 45.79387 | 21.40131 | 998 ft | 139 kts | 288° |
| 2026-05-07 20:42 | 45.79707 | 21.38821 | 815 ft | 138 kts | 290° |
| 2026-05-07 20:42 | 45.80036 | 21.37529 | 625 ft | 138 kts | 290° |
| 2026-05-07 20:42 | 45.80363 | 21.36244 | 431 ft | 137 kts | 290° |
| 2026-05-07 20:42 | 45.80676 | 21.35000 | 347 ft | 126 kts | 290° |
| 2026-05-07 20:43 | 45.80906 | 21.34078 | 340 ft | 63 kts | 290° |
| 2026-05-07 20:43 | 45.81023 | 21.33620 | 345 ft | 24 kts | 288° |
| 2026-05-07 20:43 | 45.81084 | 21.33390 | 351 ft | 25 kts | 289° |
| 2026-05-07 20:43 | 45.81143 | 21.33142 | 351 ft | 27 kts | 289° |
| 2026-05-07 20:44 | 45.81207 | 21.32895 | 344 ft | 25 kts | 290° |
| 2026-05-07 20:44 | 45.81267 | 21.32676 | 350 ft | 22 kts | 294° |
| 2026-05-07 20:44 | 45.81306 | 21.32500 | 351 ft | 16 kts | 292° |
| 2026-05-07 20:44 | 45.81348 | 21.32339 | 351 ft | 18 kts | 289° |
| 2026-05-07 20:45 | 45.81369 | 21.32160 | 349 ft | 14 kts | 227° |
| 2026-05-07 20:45 | 45.81285 | 21.32109 | 341 ft | 13 kts | 200° |
| 2026-05-07 20:45 | 45.81206 | 21.32068 | 349 ft | 11 kts | 200° |
| 2026-05-07 20:45 | 45.81159 | 21.32048 | 347 ft | 0 kts | 193° |
| 2026-05-07 20:46 | 45.81141 | 21.32055 | 345 ft | 4 kts | 142° |
| 2026-05-07 20:46 | 45.81115 | 21.32099 | 348 ft | 6 kts | 168° |
| 2026-05-07 20:46 | 45.81093 | 21.32088 | 337 ft | 5 kts | 201° |
| 2026-05-07 20:47 | 45.81081 | 21.32082 | 341 ft | 0 kts | 199° |
| 2026-05-07 20:47 | 45.81077 | 21.32080 | 341 ft | 0 kts | 200° |